createdAt,value
2018-05-01T00:00:25.993Z,100181.52
2018-05-01T00:02:53.511Z,100186.23
2018-05-01T00:05:21.036Z,100191.19
2018-05-01T00:07:48.568Z,100178.63
2018-05-01T00:10:16.083Z,100161.47
2018-05-01T00:12:43.656Z,100156.67
2018-05-01T00:15:11.178Z,100178.20
2018-05-01T00:17:38.700Z,100181.65
2018-05-01T00:20:06.220Z,100190.60
2018-05-01T00:22:33.740Z,100165.34
2018-05-01T00:25:01.251Z,100182.84
2018-05-01T00:27:28.772Z,100191.30
2018-05-01T00:29:56.308Z,100198.26
2018-05-01T00:32:23.833Z,100208.23
2018-05-01T00:34:51.352Z,100202.80
2018-05-01T00:37:18.882Z,100197.70
2018-05-01T00:39:46.409Z,100213.94
2018-05-01T00:42:13.926Z,100233.14
2018-05-01T00:44:41.455Z,100249.44
2018-05-01T00:47:08.971Z,100252.55
2018-05-01T00:49:36.501Z,100246.12
2018-05-01T00:52:04.032Z,100242.95
2018-05-01T00:54:31.567Z,100242.56
2018-05-01T00:56:59.087Z,100241.95
2018-05-01T00:59:26.599Z,100233.70
2018-05-01T01:01:54.117Z,100228.55
2018-05-01T01:04:21.634Z,100230.80
2018-05-01T01:06:49.156Z,100225.61
2018-05-01T01:09:16.676Z,100227.68
2018-05-01T01:11:44.207Z,100220.81
2018-05-01T01:14:11.738Z,100228.91
2018-05-01T01:16:39.255Z,100224.08
2018-05-01T01:19:06.777Z,100221.31
2018-05-01T01:21:34.301Z,100215.49
2018-05-01T01:24:01.816Z,100224.69
2018-05-01T01:26:29.351Z,100230.94
2018-05-01T01:28:56.862Z,100230.64
2018-05-01T01:31:24.385Z,100233.80
2018-05-01T01:33:51.897Z,100226.65
2018-05-01T01:36:18.879Z,100226.22
2018-05-01T01:38:45.861Z,100215.67
2018-05-01T01:41:12.851Z,100216.41
2018-05-01T01:43:39.827Z,100222.41
2018-05-01T01:46:06.801Z,100218.91
2018-05-01T01:48:33.789Z,100209.55
2018-05-01T01:51:00.768Z,100211.42
2018-05-01T01:53:27.743Z,100224.55
2018-05-01T01:55:54.731Z,100234.61
2018-05-01T01:58:21.707Z,100238.58
2018-05-01T02:00:48.684Z,100238.17
2018-05-01T02:03:15.664Z,100231.72
2018-05-01T02:05:42.640Z,100234.53
2018-05-01T02:08:09.621Z,100226.64
2018-05-01T02:10:36.595Z,100223.37
2018-05-01T02:13:03.574Z,100218.73
2018-05-01T02:15:30.555Z,100219.20
2018-05-01T02:17:57.544Z,100226.86
2018-05-01T02:20:24.511Z,100215.02
2018-05-01T02:22:51.492Z,100219.14
2018-05-01T02:25:18.479Z,100225.75
2018-05-01T02:27:45.463Z,100222.11
2018-05-01T02:30:12.449Z,100224.75
2018-05-01T02:32:39.442Z,100226.64
2018-05-01T02:35:06.427Z,100218.00
2018-05-01T02:37:33.415Z,100219.80
2018-05-01T02:40:00.397Z,100216.81
2018-05-01T02:42:27.381Z,100217.84
2018-05-01T02:44:54.358Z,100207.75
2018-05-01T02:47:21.335Z,100205.84
2018-05-01T02:49:48.312Z,100215.16
2018-05-01T02:52:15.288Z,100216.20
2018-05-01T02:54:42.275Z,100209.95
2018-05-01T02:57:09.261Z,100206.59
2018-05-01T02:59:36.274Z,100204.55
2018-05-01T03:02:03.253Z,100202.29
2018-05-01T03:04:30.227Z,100210.88
2018-05-01T03:06:57.209Z,100212.58
2018-05-01T03:09:24.188Z,100211.24
2018-05-01T03:11:51.168Z,100216.67
2018-05-01T03:14:18.161Z,100210.58
2018-05-01T03:16:45.162Z,100215.83
2018-05-01T03:19:12.145Z,100214.94
2018-05-01T03:21:39.124Z,100220.02
2018-05-01T03:24:06.104Z,100221.91
2018-05-01T03:26:33.102Z,100222.77
2018-05-01T03:29:00.097Z,100237.05
2018-05-01T03:31:27.079Z,100236.50
2018-05-01T03:33:54.051Z,100244.64
2018-05-01T03:36:21.036Z,100239.63
2018-05-01T03:38:48.024Z,100250.05
2018-05-01T03:41:15.013Z,100259.66
2018-05-01T03:43:41.992Z,100264.13
2018-05-01T03:46:08.976Z,100259.66
2018-05-01T03:48:35.967Z,100263.54
2018-05-01T03:51:02.944Z,100267.09
2018-05-01T03:53:29.924Z,100263.89
2018-05-01T03:55:56.959Z,100265.30
2018-05-01T03:58:23.912Z,100269.77
2018-05-01T04:00:50.898Z,100275.59
2018-05-01T04:03:17.879Z,100279.59
2018-05-01T04:05:44.860Z,100284.73
2018-05-01T04:08:12.661Z,100286.34
2018-05-01T04:10:39.648Z,100287.44
2018-05-01T04:13:06.633Z,100287.56
2018-05-01T04:15:33.618Z,100298.95
2018-05-01T04:18:00.606Z,100306.86
2018-05-01T04:20:27.589Z,100321.63
2018-05-01T04:22:54.569Z,100321.69
2018-05-01T04:25:21.614Z,100326.64
2018-05-01T04:27:48.563Z,100333.73
2018-05-01T04:30:15.547Z,100336.57
2018-05-01T04:32:42.524Z,100333.09
2018-05-01T04:35:09.502Z,100326.95
2018-05-01T04:37:36.476Z,100334.24
2018-05-01T04:40:03.464Z,100325.24
2018-05-01T04:42:30.464Z,100329.26
2018-05-01T04:44:57.445Z,100327.67
2018-05-01T04:47:24.428Z,100332.39
2018-05-01T04:49:51.419Z,100319.93
2018-05-01T04:52:18.402Z,100325.21
2018-05-01T04:54:45.401Z,100319.71
2018-05-01T04:57:12.380Z,100323.52
2018-05-01T04:59:39.354Z,100332.84
2018-05-01T05:02:06.368Z,100332.84
2018-05-01T05:04:33.347Z,100329.66
2018-05-01T05:07:00.327Z,100327.45
2018-05-01T05:09:27.380Z,100327.59
2018-05-01T05:11:54.331Z,100326.59
2018-05-01T05:14:21.316Z,100326.72
2018-05-01T05:16:48.295Z,100333.14
2018-05-01T05:19:15.273Z,100329.05
2018-05-01T05:21:42.256Z,100337.87
2018-05-01T05:24:09.238Z,100344.55
2018-05-01T05:26:36.215Z,100339.42
2018-05-01T05:29:03.196Z,100342.58
2018-05-01T05:31:30.172Z,100342.40
2018-05-01T05:33:57.148Z,100338.35
2018-05-01T05:36:24.215Z,100336.78
2018-05-01T05:38:51.136Z,100343.39
2018-05-01T05:41:18.117Z,100356.50
2018-05-01T05:43:45.113Z,100369.50
2018-05-01T05:46:12.092Z,100368.16
2018-05-01T05:48:39.072Z,100353.08
2018-05-01T05:51:06.067Z,100362.56
2018-05-01T05:53:33.063Z,100362.14
2018-05-01T05:56:00.057Z,100365.27
2018-05-01T05:58:27.041Z,100360.41
2018-05-01T06:00:54.016Z,100348.19
2018-05-01T06:03:21.014Z,100353.23
2018-05-01T06:05:47.991Z,100336.94
2018-05-01T06:08:14.971Z,100342.77
2018-05-01T06:10:41.955Z,100342.74
2018-05-01T06:13:08.930Z,100347.34
2018-05-01T06:15:35.910Z,100339.05
2018-05-01T06:18:02.895Z,100349.00
2018-05-01T06:20:29.879Z,100351.83
2018-05-01T06:22:56.859Z,100357.11
2018-05-01T06:25:23.835Z,100354.42
2018-05-01T06:27:50.807Z,100361.30
2018-05-01T06:30:17.787Z,100376.47
2018-05-01T06:32:44.760Z,100369.55
2018-05-01T06:35:11.748Z,100368.18
2018-05-01T06:37:38.730Z,100362.30
2018-05-01T06:40:05.717Z,100375.45
2018-05-01T06:42:32.704Z,100362.95
2018-05-01T06:44:59.688Z,100383.39
2018-05-01T06:47:26.679Z,100378.02
2018-05-01T06:49:53.660Z,100381.92
2018-05-01T06:52:20.635Z,100381.89
2018-05-01T06:54:47.613Z,100388.97
2018-05-01T06:57:14.603Z,100395.64
2018-05-01T06:59:41.577Z,100384.59
2018-05-01T07:02:08.560Z,100388.00
2018-05-01T07:04:35.601Z,100384.08
2018-05-01T07:07:02.553Z,100379.13
2018-05-01T07:09:29.537Z,100384.17
2018-05-01T07:11:56.522Z,100376.78
2018-05-01T07:14:23.507Z,100388.30
2018-05-01T07:16:50.500Z,100393.06
2018-05-01T07:19:17.516Z,100399.04
2018-05-01T07:21:44.496Z,100392.63
2018-05-01T07:24:11.478Z,100378.77
2018-05-01T07:26:38.552Z,100394.36
2018-05-01T07:29:05.531Z,100407.81
2018-05-01T07:31:32.508Z,100410.88
2018-05-01T07:33:59.597Z,100438.51
2018-05-01T07:36:26.654Z,100418.89
2018-05-01T07:38:53.637Z,100402.70
2018-05-01T07:41:20.624Z,100391.69
2018-05-01T07:43:47.603Z,100398.29
2018-05-01T07:46:14.594Z,100408.27
2018-05-01T07:48:41.596Z,100408.87
2018-05-01T07:51:08.590Z,100417.61
2018-05-01T07:53:35.563Z,100414.42
2018-05-01T07:56:02.547Z,100411.67
2018-05-01T07:58:29.536Z,100418.98
2018-05-01T08:01:00.145Z,100415.78
2018-05-01T08:03:27.869Z,100423.04
2018-05-01T08:05:54.886Z,100435.06
2018-05-01T08:08:21.889Z,100432.08
2018-05-01T08:10:48.920Z,100426.22
2018-05-01T08:13:15.908Z,100426.58
2018-05-01T08:15:42.901Z,100433.88
2018-05-01T08:18:09.905Z,100434.13
2018-05-01T08:20:36.918Z,100436.98
2018-05-01T08:23:03.903Z,100443.95
2018-05-01T08:25:30.892Z,100457.77
2018-05-01T08:27:57.872Z,100463.87
2018-05-01T08:30:24.933Z,100452.77
2018-05-01T08:32:51.855Z,100450.09
2018-05-01T08:35:18.852Z,100451.64
2018-05-01T08:37:46.049Z,100448.08
2018-05-01T08:40:13.040Z,100447.60
2018-05-01T08:42:40.046Z,100446.56
2018-05-01T08:45:07.025Z,100461.51
2018-05-01T08:47:34.014Z,100445.62
2018-05-01T08:50:00.992Z,100458.02
2018-05-01T08:52:27.973Z,100458.59
2018-05-01T08:54:54.960Z,100459.44
2018-05-01T08:57:21.983Z,100457.11
2018-05-01T08:59:48.947Z,100464.97
2018-05-01T09:02:15.925Z,100462.92
2018-05-01T09:04:42.904Z,100457.63
2018-05-01T09:07:09.885Z,100454.85
2018-05-01T09:09:36.917Z,100454.65
2018-05-01T09:12:03.972Z,100453.89
2018-05-01T09:14:31.029Z,100447.06
2018-05-01T09:16:58.022Z,100456.38
2018-05-01T09:19:25.032Z,100464.27
2018-05-01T09:21:52.038Z,100468.97
2018-05-01T09:24:19.017Z,100470.36
2018-05-01T09:26:45.997Z,100474.02
2018-05-01T09:29:12.978Z,100465.70
2018-05-01T09:31:39.965Z,100460.09
2018-05-01T09:34:06.952Z,100467.45
2018-05-01T09:36:33.936Z,100465.35
2018-05-01T09:39:00.923Z,100473.89
2018-05-01T09:41:27.901Z,100471.00
2018-05-01T09:43:54.919Z,100473.14
2018-05-01T09:46:21.972Z,100457.94
2018-05-01T09:48:49.083Z,100472.98
2018-05-01T09:51:16.130Z,100470.21
2018-05-01T09:53:43.680Z,100458.91
2018-05-01T09:56:11.412Z,100450.36
2018-05-01T09:58:38.952Z,100454.24
2018-05-01T10:01:06.481Z,100471.67
2018-05-01T10:03:34.006Z,100476.26
2018-05-01T10:06:01.529Z,100477.40
2018-05-01T10:08:29.139Z,100467.42
2018-05-01T10:10:56.660Z,100480.55
2018-05-01T10:13:24.177Z,100475.87
2018-05-01T10:15:51.731Z,100473.42
2018-05-01T10:18:19.294Z,100482.27
2018-05-01T10:20:46.809Z,100475.73
2018-05-01T10:23:14.345Z,100478.89
2018-05-01T10:25:41.871Z,100481.13
2018-05-01T10:28:09.387Z,100476.55
2018-05-01T10:30:36.994Z,100458.03
2018-05-01T10:33:04.519Z,100481.13
2018-05-01T10:35:32.058Z,100475.67
2018-05-01T10:37:59.603Z,100484.30
2018-05-01T10:40:27.220Z,100477.51
2018-05-01T10:42:54.849Z,100479.72
2018-05-01T10:45:22.356Z,100474.40
2018-05-01T10:47:49.867Z,100485.29
2018-05-01T10:50:17.396Z,100485.78
2018-05-01T10:52:44.932Z,100477.05
2018-05-01T10:55:12.491Z,100494.27
2018-05-01T10:57:40.051Z,100483.45
2018-05-01T11:00:07.596Z,100494.19
2018-05-01T11:02:35.172Z,100489.45
2018-05-01T11:05:02.695Z,100497.95
2018-05-01T11:07:30.297Z,100490.29
2018-05-01T11:09:57.954Z,100496.84
2018-05-01T11:12:25.485Z,100510.63
2018-05-01T11:14:53.016Z,100516.40
2018-05-01T11:17:20.602Z,100523.91
2018-05-01T11:19:48.123Z,100516.16
2018-05-01T11:22:15.741Z,100514.75
2018-05-01T11:24:43.285Z,100517.59
2018-05-01T11:27:10.800Z,100526.53
2018-05-01T11:29:38.325Z,100531.80
2018-05-01T11:32:05.840Z,100529.17
2018-05-01T11:34:33.384Z,100538.13
2018-05-01T11:37:00.909Z,100531.93
2018-05-01T11:39:28.427Z,100557.94
2018-05-01T11:41:55.961Z,100551.77
2018-05-01T11:44:23.585Z,100544.75
2018-05-01T11:46:51.103Z,100556.34
2018-05-01T11:49:18.638Z,100574.69
2018-05-01T11:51:46.165Z,100570.81
2018-05-01T11:54:13.696Z,100583.44
2018-05-01T11:56:41.213Z,100573.19
2018-05-01T11:59:08.740Z,100575.77
2018-05-01T12:01:36.300Z,100589.37
2018-05-01T12:04:03.819Z,100606.08
2018-05-01T12:06:31.336Z,100599.52
2018-05-01T12:08:58.858Z,100599.28
2018-05-01T12:11:26.374Z,100615.53
2018-05-01T12:13:53.905Z,100607.48
2018-05-01T12:16:21.465Z,100620.88
2018-05-01T12:18:48.990Z,100617.44
2018-05-01T12:21:16.507Z,100621.39
2018-05-01T12:23:44.111Z,100624.02
2018-05-01T12:26:11.569Z,100622.93
2018-05-01T12:28:39.111Z,100625.24
2018-05-01T12:31:06.629Z,100628.39
2018-05-01T12:33:34.159Z,100635.52
2018-05-01T12:36:01.692Z,100642.39
2018-05-01T12:38:29.230Z,100629.42
2018-05-01T12:40:56.905Z,100632.41
2018-05-01T12:43:24.484Z,100638.20
2018-05-01T12:45:52.012Z,100640.86
2018-05-01T12:48:19.582Z,100639.41
2018-05-01T12:50:47.070Z,100640.08
2018-05-01T12:53:14.656Z,100641.30
2018-05-01T12:55:42.184Z,100632.02
2018-05-01T12:58:09.763Z,100639.63
2018-05-01T13:00:37.435Z,100643.11
2018-05-01T13:03:04.956Z,100641.16
2018-05-01T13:05:32.560Z,100629.03
2018-05-01T13:08:00.075Z,100627.72
2018-05-01T13:10:27.595Z,100634.71
2018-05-01T13:12:55.234Z,100633.92
2018-05-01T13:15:23.349Z,100630.86
2018-05-01T13:17:50.867Z,100635.27
2018-05-01T13:20:18.396Z,100638.75
2018-05-01T13:22:45.948Z,100640.84
2018-05-01T13:25:13.472Z,100638.34
2018-05-01T13:27:40.992Z,100640.47
2018-05-01T13:30:08.525Z,100646.56
2018-05-01T13:32:36.055Z,100633.41
2018-05-01T13:35:03.587Z,100631.04
2018-05-01T13:37:31.105Z,100634.77
2018-05-01T13:39:58.678Z,100643.12
2018-05-01T13:42:26.225Z,100661.42
2018-05-01T13:44:53.750Z,100655.94
2018-05-01T13:47:21.372Z,100652.27
2018-05-01T13:49:48.894Z,100664.27
2018-05-01T13:52:16.427Z,100664.41
2018-05-01T13:54:43.947Z,100656.34
2018-05-01T13:57:11.497Z,100670.44
2018-05-01T13:59:39.022Z,100678.97
2018-05-01T14:02:06.544Z,100676.66
2018-05-01T14:04:34.206Z,100682.74
2018-05-01T14:07:01.766Z,100680.36
2018-05-01T14:09:29.320Z,100681.37
2018-05-01T14:11:56.992Z,100673.47
2018-05-01T14:14:24.635Z,100673.29
2018-05-01T14:16:52.206Z,100672.66
2018-05-01T14:19:19.764Z,100664.89
2018-05-01T14:21:47.297Z,100670.76
2018-05-01T14:24:14.812Z,100668.00
2018-05-01T14:26:42.351Z,100674.12
2018-05-01T14:29:09.873Z,100693.59
2018-05-01T14:31:37.406Z,100693.39
2018-05-01T14:34:04.929Z,100706.19
2018-05-01T14:36:32.451Z,100695.39
2018-05-01T14:38:59.996Z,100712.09
2018-05-01T14:41:27.535Z,100712.09
2018-05-01T14:43:55.067Z,100709.65
2018-05-01T14:46:22.590Z,100723.09
2018-05-01T14:48:50.168Z,100718.13
2018-05-01T14:51:17.682Z,100721.84
2018-05-01T14:53:45.195Z,100725.44
2018-05-01T14:56:12.733Z,100738.19
2018-05-01T14:58:40.259Z,100736.30
2018-05-01T15:01:07.889Z,100736.10
2018-05-01T15:03:35.403Z,100734.31
2018-05-01T15:06:02.938Z,100739.55
2018-05-01T15:08:30.462Z,100740.20
2018-05-01T15:10:57.989Z,100744.84
2018-05-01T15:13:25.507Z,100742.47
2018-05-01T15:15:53.038Z,100747.81
2018-05-01T15:18:20.566Z,100753.10
2018-05-01T15:20:48.100Z,100756.66
2018-05-01T15:23:15.689Z,100757.72
2018-05-01T15:25:43.262Z,100756.38
2018-05-01T15:28:10.835Z,100752.19
2018-05-01T15:30:38.365Z,100760.23
2018-05-01T15:33:05.900Z,100757.97
2018-05-01T15:35:33.516Z,100754.16
2018-05-01T15:38:01.044Z,100748.20
2018-05-01T15:40:28.688Z,100754.63
2018-05-01T15:42:56.221Z,100752.19
2018-05-01T15:45:23.854Z,100746.48
2018-05-01T15:47:51.372Z,100748.87
2018-05-01T15:50:18.901Z,100748.62
2018-05-01T15:52:46.426Z,100748.88
2018-05-01T15:55:13.948Z,100752.32
2018-05-01T15:57:41.475Z,100761.59
2018-05-01T16:00:08.999Z,100761.30
2018-05-01T16:02:36.517Z,100759.87
2018-05-01T16:05:04.036Z,100757.48
2018-05-01T16:07:31.560Z,100758.46
2018-05-01T16:09:59.076Z,100758.95
2018-05-01T16:12:26.611Z,100759.06
2018-05-01T16:14:54.126Z,100750.65
2018-05-01T16:17:21.684Z,100753.67
2018-05-01T16:19:49.208Z,100747.53
2018-05-01T16:22:16.742Z,100747.70
2018-05-01T16:24:44.255Z,100744.27
2018-05-01T16:27:11.777Z,100757.90
2018-05-01T16:29:39.293Z,100754.87
2018-05-01T16:32:06.885Z,100753.46
2018-05-01T16:34:34.411Z,100744.32
2018-05-01T16:37:01.942Z,100738.41
2018-05-01T16:39:29.567Z,100751.43
2018-05-01T16:41:57.092Z,100752.84
2018-05-01T16:44:24.653Z,100750.02
2018-05-01T16:46:52.885Z,100755.86
2018-05-01T16:49:20.415Z,100756.97
2018-05-01T16:51:47.950Z,100755.41
2018-05-01T16:54:15.539Z,100764.87
2018-05-01T16:56:43.064Z,100772.56
2018-05-01T16:59:10.659Z,100776.42
2018-05-01T17:01:38.183Z,100777.34
2018-05-01T17:04:05.883Z,100772.87
2018-05-01T17:06:33.542Z,100781.34
2018-05-01T17:09:01.069Z,100776.23
2018-05-01T17:11:28.586Z,100777.27
2018-05-01T17:13:56.224Z,100772.97
2018-05-01T17:16:23.750Z,100784.09
2018-05-01T17:18:51.339Z,100783.30
2018-05-01T17:21:18.900Z,100789.70
2018-05-01T17:23:46.432Z,100788.62
2018-05-01T17:26:13.952Z,100789.25
2018-05-01T17:28:41.480Z,100787.21
2018-05-01T17:31:09.009Z,100792.16
2018-05-01T17:33:36.536Z,100805.42
2018-05-01T17:36:04.063Z,100804.94
2018-05-01T17:38:31.585Z,100816.72
2018-05-01T17:40:59.247Z,100819.27
2018-05-01T17:43:26.825Z,100819.27
2018-05-01T17:45:54.341Z,100823.55
2018-05-01T17:48:21.873Z,100834.21
2018-05-01T17:50:49.389Z,100830.89
2018-05-01T17:53:16.949Z,100840.19
2018-05-01T17:55:44.481Z,100840.98
2018-05-01T17:58:11.996Z,100841.97
2018-05-01T18:00:39.543Z,100834.69
2018-05-01T18:03:07.074Z,100837.51
2018-05-01T18:05:34.643Z,100836.69
2018-05-01T18:08:02.231Z,100851.98
2018-05-01T18:10:29.791Z,100846.55
2018-05-01T18:12:57.356Z,100850.44
2018-05-01T18:15:24.881Z,100854.80
2018-05-01T18:17:52.409Z,100855.61
2018-05-01T18:20:19.930Z,100853.52
2018-05-01T18:22:47.477Z,100860.59
2018-05-01T18:25:14.998Z,100869.34
2018-05-01T18:27:42.528Z,100882.36
2018-05-01T18:30:10.042Z,100876.41
2018-05-01T18:32:37.557Z,100880.53
2018-05-01T18:35:05.074Z,100886.08
2018-05-01T18:37:32.649Z,100886.56
2018-05-01T18:40:00.176Z,100886.30
2018-05-01T18:42:27.708Z,100894.98
2018-05-01T18:44:55.324Z,100899.25
2018-05-01T18:47:22.845Z,100896.97
2018-05-01T18:49:50.373Z,100911.42
2018-05-01T18:52:18.055Z,100916.35
2018-05-01T18:54:45.603Z,100917.48
2018-05-01T18:57:13.129Z,100922.70
2018-05-01T18:59:40.643Z,100921.41
2018-05-01T19:02:08.159Z,100925.00
2018-05-01T19:04:35.728Z,100929.53
2018-05-01T19:07:03.271Z,100936.96
2018-05-01T19:09:30.882Z,100933.76
2018-05-01T19:11:58.411Z,100938.28
2018-05-01T19:14:26.009Z,100948.31
2018-05-01T19:16:53.608Z,100958.62
2018-05-01T19:19:21.124Z,100955.16
2018-05-01T19:21:48.694Z,100963.41
2018-05-01T19:24:16.445Z,100967.16
2018-05-01T19:26:43.974Z,100969.09
2018-05-01T19:29:11.515Z,100970.83
2018-05-01T19:31:39.039Z,100975.07
2018-05-01T19:34:06.557Z,100966.27
2018-05-01T19:36:34.089Z,100967.66
2018-05-01T19:39:01.619Z,100979.11
2018-05-01T19:41:29.213Z,100988.30
2018-05-01T19:43:56.837Z,100992.16
2018-05-01T19:46:24.357Z,100991.87
2018-05-01T19:48:51.956Z,100993.84
2018-05-01T19:51:19.532Z,100993.14
2018-05-01T19:53:47.062Z,100997.08
2018-05-01T19:56:14.598Z,100998.09
2018-05-01T19:58:42.232Z,101002.47
2018-05-01T20:01:09.791Z,101008.02
2018-05-01T20:03:37.315Z,101020.78
2018-05-01T20:06:04.836Z,101024.09
2018-05-01T20:08:32.367Z,101027.52
2018-05-01T20:10:59.931Z,101029.01
2018-05-01T20:13:27.453Z,101022.64
2018-05-01T20:15:54.964Z,101024.16
2018-05-01T20:18:22.696Z,101024.39
2018-05-01T20:20:50.237Z,101025.56
2018-05-01T20:23:17.796Z,101029.52
2018-05-01T20:25:45.319Z,101035.55
2018-05-01T20:28:12.846Z,101037.50
2018-05-01T20:30:40.486Z,101033.20
2018-05-01T20:33:08.004Z,101035.55
2018-05-01T20:35:35.532Z,101027.17
2018-05-01T20:38:03.063Z,101032.64
2018-05-01T20:40:30.648Z,101023.00
2018-05-01T20:42:58.212Z,101024.88
2018-05-01T20:45:25.731Z,101021.02
2018-05-01T20:47:53.336Z,101020.56
2018-05-01T20:50:20.884Z,101026.03
2018-05-01T20:52:48.426Z,101026.76
2018-05-01T20:55:15.954Z,101022.03
2018-05-01T20:57:43.501Z,101031.25
2018-05-01T21:00:11.028Z,101029.16
2018-05-01T21:02:38.539Z,101032.02
2018-05-01T21:05:06.146Z,101030.67
2018-05-01T21:07:33.681Z,101036.73
2018-05-01T21:10:01.198Z,101028.12
2018-05-01T21:12:28.724Z,101036.75
2018-05-01T21:14:56.256Z,101045.00
2018-05-01T21:17:23.861Z,101045.99
2018-05-01T21:19:51.375Z,101046.47
2018-05-01T21:22:18.897Z,101053.27
2018-05-01T21:24:46.524Z,101057.85
2018-05-01T21:27:14.040Z,101057.55
2018-05-01T21:29:41.611Z,101061.17
2018-05-01T21:32:09.173Z,101062.52
2018-05-01T21:34:36.763Z,101062.20
2018-05-01T21:37:04.299Z,101061.77
2018-05-01T21:39:31.810Z,101070.41
2018-05-01T21:41:59.340Z,101082.66
2018-05-01T21:44:26.873Z,101087.64
2018-05-01T21:46:54.401Z,101093.16
2018-05-01T21:49:21.919Z,101097.34
2018-05-01T21:51:49.450Z,101098.55
2018-05-01T21:54:16.981Z,101098.59
2018-05-01T21:56:44.531Z,101101.69
2018-05-01T21:59:12.058Z,101106.30
2018-05-01T22:01:39.592Z,101114.06
2018-05-01T22:04:07.119Z,101115.05
2018-05-01T22:06:34.695Z,101124.98
2018-05-01T22:09:02.320Z,101134.92
2018-05-01T22:11:29.882Z,101140.84
2018-05-01T22:13:57.407Z,101145.37
2018-05-01T22:16:24.928Z,101150.22
2018-05-01T22:18:52.455Z,101153.88
2018-05-01T22:21:19.975Z,101154.16
2018-05-01T22:23:47.555Z,101156.01
2018-05-01T22:26:15.070Z,101160.00
2018-05-01T22:28:42.634Z,101161.08
2018-05-01T22:31:10.117Z,101163.90
2018-05-01T22:33:37.692Z,101165.72
2018-05-01T22:36:05.216Z,101169.91
2018-05-01T22:38:32.744Z,101179.00
2018-05-01T22:41:00.328Z,101179.47
2018-05-01T22:43:27.831Z,101174.57
2018-05-01T22:45:55.352Z,101173.50
2018-05-01T22:48:22.875Z,101175.08
2018-05-01T22:50:50.509Z,101179.56
2018-05-01T22:53:18.041Z,101179.20
2018-05-01T22:55:45.561Z,101187.24
2018-05-01T22:58:13.185Z,101190.86
2018-05-01T23:00:40.713Z,101188.72
2018-05-01T23:03:08.276Z,101190.28
2018-05-01T23:05:35.794Z,101182.53
2018-05-01T23:08:03.310Z,101186.25
2018-05-01T23:10:30.886Z,101187.22
2018-05-01T23:12:58.444Z,101189.05
2018-05-01T23:15:25.966Z,101194.52
2018-05-01T23:17:53.489Z,101192.73
2018-05-01T23:20:21.022Z,101192.42
2018-05-01T23:22:48.583Z,101193.89
2018-05-01T23:25:16.111Z,101189.16
2018-05-01T23:27:43.699Z,101188.69
2018-05-01T23:30:11.262Z,101189.30
2018-05-01T23:32:38.789Z,101188.66
2018-05-01T23:35:06.350Z,101192.80
2018-05-01T23:37:33.873Z,101198.19
2018-05-01T23:40:01.397Z,101196.91
2018-05-01T23:42:28.929Z,101200.14
2018-05-01T23:44:56.479Z,101202.35
2018-05-01T23:47:24.000Z,101205.09
2018-05-01T23:49:51.522Z,101208.27
2018-05-01T23:52:19.089Z,101215.92
2018-05-01T23:54:46.598Z,101221.28
2018-05-01T23:57:14.115Z,101215.44
2018-05-01T23:59:41.647Z,101212.84
